Time;durP1;ratioP1;P1;durP2;ratioP2;P2;SDS_P1;SDS_P2;PMS_P1;PMS_P2;Temp;Humidity;BMP_temperature;BMP_pressure;BME280_temperature;BME280_humidity;BME280_pressure;Samples;Min_cycle;Max_cycle;Signal;HPM_P1;HPM_P2
2022/04/24 00:02:44;;;;;;;33.97;16.85;;;;;;;;;;5009478;28;20026;-70
2022/04/24 00:05:29;;;;;;;20.70;16.52;;;;;;;;;;5018832;28;20397;-77
2022/04/24 00:08:15;;;;;;;23.25;16.90;;;;;;;;;;5001117;28;20475;-77
2022/04/24 00:11:00;;;;;;;22.05;16.15;;;;;;;;;;5005581;28;20037;-78
2022/04/24 00:13:45;;;;;;;21.90;15.68;;;;;;;;;;4986703;28;20034;-76
2022/04/24 00:16:31;;;;;;;21.73;16.90;;;;;;;;;;4996839;28;20469;-79
2022/04/24 00:19:18;;;;;;;22.70;17.98;;;;;;;;;;5023950;28;20030;-76
2022/04/24 00:22:04;;;;;;;22.85;17.38;;;;;;;;;;4995642;28;20026;-70
2022/04/24 00:24:49;;;;;;;20.50;14.82;;;;;;;;;;4994569;28;20100;-68
2022/04/24 00:27:34;;;;;;;23.35;17.38;;;;;;;;;;5016430;28;20033;-68
2022/04/24 00:30:20;;;;;;;20.65;16.98;;;;;;;;;;5009132;28;20029;-71
2022/04/24 00:33:05;;;;;;;22.60;17.10;;;;;;;;;;5012602;28;20535;-70
2022/04/24 00:35:51;;;;;;;20.77;17.00;;;;;;;;;;5017320;28;20021;-69
2022/04/24 00:38:36;;;;;;;21.80;17.15;;;;;;;;;;4986624;28;20022;-77
2022/04/24 00:41:21;;;;;;;20.60;17.00;;;;;;;;;;4998346;28;20033;-71
2022/04/24 00:44:06;;;;;;;21.90;17.55;;;;;;;;;;4998598;28;20030;-74
2022/04/24 00:46:56;;;;;;;20.92;17.95;;;;;;;;;;4999911;28;20437;-73
2022/04/24 00:49:43;;;;;;;21.70;17.42;;;;;;;;;;5031190;28;20583;-75
2022/04/24 00:52:28;;;;;;;20.00;16.05;;;;;;;;;;5008244;28;20029;-73
2022/04/24 00:55:13;;;;;;;21.67;17.05;;;;;;;;;;5000795;28;20040;-74
2022/04/24 00:57:59;;;;;;;21.50;16.50;;;;;;;;;;5014945;28;20033;-78
2022/04/24 01:00:44;;;;;;;20.95;16.33;;;;;;;;;;5003784;28;20108;-73
2022/04/24 01:03:30;;;;;;;22.25;17.45;;;;;;;;;;5016393;28;20036;-73
2022/04/24 01:06:15;;;;;;;22.23;18.02;;;;;;;;;;4998035;28;20123;-74
2022/04/24 01:09:10;;;;;;;22.08;16.77;;;;;;;;;;5029130;28;20407;-73
2022/04/24 01:11:56;;;;;;;23.27;16.38;;;;;;;;;;4997663;28;20032;-76
2022/04/24 01:14:41;;;;;;;21.17;16.48;;;;;;;;;;5016304;28;20033;-73
2022/04/24 01:17:27;;;;;;;21.58;17.88;;;;;;;;;;5025450;28;20147;-70
2022/04/24 01:20:13;;;;;;;22.00;17.10;;;;;;;;;;5008662;28;20092;-73
2022/04/24 01:22:58;;;;;;;22.80;16.80;;;;;;;;;;5010486;28;20547;-72
2022/04/24 01:25:43;;;;;;;19.67;16.20;;;;;;;;;;4991629;28;20029;-73
2022/04/24 01:28:29;;;;;;;22.38;17.77;;;;;;;;;;4990292;28;20148;-71
2022/04/24 01:31:14;;;;;;;20.83;16.85;;;;;;;;;;5013899;28;20468;-71
2022/04/24 01:34:00;;;;;;;20.83;16.55;;;;;;;;;;5021737;28;20229;-72
2022/04/24 01:36:45;;;;;;;18.52;14.77;;;;;;;;;;5010673;28;20025;-76
2022/04/24 01:39:31;;;;;;;22.52;16.60;;;;;;;;;;5004364;28;20034;-70
2022/04/24 01:42:16;;;;;;;21.67;16.88;;;;;;;;;;5022442;28;20025;-70
2022/04/24 01:45:01;;;;;;;20.02;16.08;;;;;;;;;;5021756;28;20025;-70
2022/04/24 01:47:46;;;;;;;19.83;16.52;;;;;;;;;;5008257;28;20053;-71
2022/04/24 01:50:32;;;;;;;19.58;15.70;;;;;;;;;;5029199;28;20631;-72
2022/04/24 01:53:17;;;;;;;22.15;17.13;;;;;;;;;;4983887;28;20071;-70
2022/04/24 01:56:03;;;;;;;21.25;17.20;;;;;;;;;;4996820;28;20025;-78
2022/04/24 01:58:48;;;;;;;19.73;15.55;;;;;;;;;;5000610;28;20068;-78
2022/04/24 02:01:36;;;;;;;19.70;16.25;;;;;;;;;;5000891;28;20322;-78
2022/04/24 02:04:23;;;;;;;21.10;16.63;;;;;;;;;;5022031;28;20104;-79
2022/04/24 02:07:08;;;;;;;20.30;15.75;;;;;;;;;;4990824;28;20033;-80
2022/04/24 02:09:54;;;;;;;20.48;17.08;;;;;;;;;;4989972;28;20029;-77
2022/04/24 02:12:40;;;;;;;22.80;16.63;;;;;;;;;;5011243;28;20064;-70
2022/04/24 02:15:25;;;;;;;21.80;16.70;;;;;;;;;;5005231;28;20161;-78
2022/04/24 02:18:10;;;;;;;22.38;17.27;;;;;;;;;;5014889;28;20048;-81
2022/04/24 02:20:56;;;;;;;20.92;16.05;;;;;;;;;;5009442;28;20034;-80
2022/04/24 02:23:41;;;;;;;21.80;16.02;;;;;;;;;;4982453;28;20490;-79
2022/04/24 02:26:26;;;;;;;21.75;17.95;;;;;;;;;;5001412;28;20037;-79
2022/04/24 02:29:11;;;;;;;19.15;16.52;;;;;;;;;;4987758;28;20034;-72
2022/04/24 02:31:57;;;;;;;23.55;18.25;;;;;;;;;;4999484;28;20033;-72
2022/04/24 02:34:42;;;;;;;20.83;15.60;;;;;;;;;;5007846;28;20041;-77
2022/04/24 02:37:27;;;;;;;19.95;16.60;;;;;;;;;;5023440;28;20053;-77
2022/04/24 02:40:14;;;;;;;25.13;18.38;;;;;;;;;;4985639;28;20362;-77
2022/04/24 02:42:59;;;;;;;20.15;15.57;;;;;;;;;;4982306;28;20405;-77
2022/04/24 02:45:44;;;;;;;21.08;16.30;;;;;;;;;;5006120;28;20033;-79
2022/04/24 02:48:30;;;;;;;18.35;15.15;;;;;;;;;;5012569;28;20049;-70
2022/04/24 02:51:15;;;;;;;21.20;16.13;;;;;;;;;;5013771;28;20053;-72
2022/04/24 02:54:00;;;;;;;21.02;16.60;;;;;;;;;;5007434;28;20041;-71
2022/04/24 02:56:45;;;;;;;19.50;15.65;;;;;;;;;;5013408;28;20025;-72
2022/04/24 02:59:32;;;;;;;21.70;16.05;;;;;;;;;;5006833;28;20064;-75
2022/04/24 03:02:17;;;;;;;21.42;17.83;;;;;;;;;;4991608;28;20037;-75
2022/04/24 03:05:02;;;;;;;21.65;16.42;;;;;;;;;;5009679;28;20504;-71
2022/04/24 03:07:47;;;;;;;18.77;15.27;;;;;;;;;;5026929;28;20034;-76
2022/04/24 03:10:33;;;;;;;20.20;16.23;;;;;;;;;;5008754;28;20104;-71
2022/04/24 03:13:18;;;;;;;20.92;16.52;;;;;;;;;;5013316;28;20488;-71
2022/04/24 03:16:03;;;;;;;20.80;17.23;;;;;;;;;;5025061;28;20049;-73
2022/04/24 03:18:49;;;;;;;20.55;17.00;;;;;;;;;;5012814;28;20029;-72
2022/04/24 03:21:34;;;;;;;21.45;16.40;;;;;;;;;;5009198;28;20026;-72
2022/04/24 03:24:19;;;;;;;19.15;16.55;;;;;;;;;;4981597;28;20117;-69
2022/04/24 03:27:05;;;;;;;23.13;19.00;;;;;;;;;;5009289;28;20026;-69
2022/04/24 03:29:50;;;;;;;20.00;15.75;;;;;;;;;;5010726;28;20048;-73
2022/04/24 03:32:35;;;;;;;20.83;17.40;;;;;;;;;;5012942;28;20120;-72
2022/04/24 03:35:21;;;;;;;22.80;17.67;;;;;;;;;;5008654;28;20030;-72
2022/04/24 03:38:06;;;;;;;20.55;16.70;;;;;;;;;;4999499;28;20037;-72
2022/04/24 03:40:51;;;;;;;21.13;16.58;;;;;;;;;;5010564;28;20026;-71
2022/04/24 03:43:37;;;;;;;20.38;17.55;;;;;;;;;;5001128;28;20394;-73
2022/04/24 03:46:22;;;;;;;22.75;18.50;;;;;;;;;;5024317;28;20053;-74
2022/04/24 03:49:07;;;;;;;23.48;18.75;;;;;;;;;;5005655;28;20408;-75
2022/04/24 03:51:53;;;;;;;22.20;15.95;;;;;;;;;;5004813;28;20503;-77
2022/04/24 03:54:38;;;;;;;21.85;17.50;;;;;;;;;;5013395;28;20033;-75
2022/04/24 03:57:24;;;;;;;21.30;17.10;;;;;;;;;;4996745;28;20715;-74
2022/04/24 04:00:10;;;;;;;22.73;17.52;;;;;;;;;;5011427;28;20357;-74
2022/04/24 04:02:55;;;;;;;23.25;18.77;;;;;;;;;;5014387;28;20499;-71
2022/04/24 04:05:40;;;;;;;23.33;17.23;;;;;;;;;;5028246;28;20044;-71
2022/04/24 04:08:25;;;;;;;24.10;19.50;;;;;;;;;;5030724;28;20037;-71
2022/04/24 04:11:12;;;;;;;19.77;16.80;;;;;;;;;;5032019;28;20045;-74
2022/04/24 04:13:57;;;;;;;21.13;16.83;;;;;;;;;;4990955;28;20025;-72
2022/04/24 04:16:42;;;;;;;20.77;17.90;;;;;;;;;;5017310;28;20393;-73
2022/04/24 04:19:28;;;;;;;21.17;17.60;;;;;;;;;;5013290;28;20030;-76
2022/04/24 04:22:13;;;;;;;21.77;18.13;;;;;;;;;;5018098;28;20029;-69
2022/04/24 04:24:58;;;;;;;23.13;19.20;;;;;;;;;;5031152;28;20033;-76
2022/04/24 04:27:44;;;;;;;20.80;16.60;;;;;;;;;;5013651;28;20152;-78
2022/04/24 04:30:29;;;;;;;21.55;18.38;;;;;;;;;;4992607;28;20499;-78
2022/04/24 04:33:15;;;;;;;21.77;17.98;;;;;;;;;;5016938;28;20033;-76
2022/04/24 04:36:00;;;;;;;26.15;18.83;;;;;;;;;;5003344;28;20506;-80
2022/04/24 04:38:45;;;;;;;23.48;19.35;;;;;;;;;;4996836;28;20114;-73
2022/04/24 04:41:31;;;;;;;24.00;19.60;;;;;;;;;;5024331;28;20090;-74
2022/04/24 04:44:16;;;;;;;16.70;13.18;;;;;;;;;;5002562;28;20082;-73
2022/04/24 04:47:01;;;;;;;12.60;8.45;;;;;;;;;;4999165;28;20427;-74
2022/04/24 04:49:47;;;;;;;11.60;6.63;;;;;;;;;;5002146;28;20042;-72
2022/04/24 04:52:32;;;;;;;6.95;4.50;;;;;;;;;;4993768;28;20033;-73
2022/04/24 04:55:18;;;;;;;6.00;3.15;;;;;;;;;;5017388;28;20063;-73
2022/04/24 04:58:03;;;;;;;5.22;2.03;;;;;;;;;;5010711;28;20108;-74
2022/04/24 05:00:48;;;;;;;4.85;1.50;;;;;;;;;;5015014;28;20039;-75
2022/04/24 05:03:34;;;;;;;2.70;1.20;;;;;;;;;;5015507;28;20044;-73
2022/04/24 05:06:19;;;;;;;2.95;1.08;;;;;;;;;;5012272;28;20033;-73
2022/04/24 05:09:05;;;;;;;1.20;1.00;;;;;;;;;;5016254;28;20432;-74
2022/04/24 05:11:50;;;;;;;1.67;1.02;;;;;;;;;;5011490;28;20027;-74
2022/04/24 05:14:35;;;;;;;1.20;0.90;;;;;;;;;;5017304;28;20604;-73
2022/04/24 05:17:20;;;;;;;2.08;1.20;;;;;;;;;;5012028;28;20025;-77
2022/04/24 05:20:07;;;;;;;1.20;0.88;;;;;;;;;;5011068;28;20052;-78
2022/04/24 05:23:01;;;;;;;2.72;0.60;;;;;;;;;;4994921;28;20025;-77
2022/04/24 05:25:47;;;;;;;1.27;0.80;;;;;;;;;;4995015;28;20109;-76
2022/04/24 05:28:32;;;;;;;0.90;0.60;;;;;;;;;;4997875;28;20128;-79
2022/04/24 05:31:17;;;;;;;1.60;0.60;;;;;;;;;;5004589;28;20445;-77
2022/04/24 05:34:02;;;;;;;1.00;0.88;;;;;;;;;;4999776;28;20073;-77
2022/04/24 05:36:48;;;;;;;8.75;0.70;;;;;;;;;;5015977;28;20083;-69
2022/04/24 05:39:33;;;;;;;2.63;1.00;;;;;;;;;;5008053;28;20038;-69
2022/04/24 05:42:18;;;;;;;1.55;0.73;;;;;;;;;;5001998;28;20168;-69
2022/04/24 05:45:08;;;;;;;1.58;0.70;;;;;;;;;;4995156;28;20037;-69
2022/04/24 05:47:54;;;;;;;1.95;0.60;;;;;;;;;;4998608;28;20033;-70
2022/04/24 05:50:39;;;;;;;0.80;0.60;;;;;;;;;;4989206;28;20117;-70
2022/04/24 05:53:24;;;;;;;1.20;0.50;;;;;;;;;;5002148;28;20499;-76
2022/04/24 05:56:09;;;;;;;0.95;0.75;;;;;;;;;;5012486;28;20432;-71
2022/04/24 05:58:55;;;;;;;1.90;0.60;;;;;;;;;;5010478;28;20021;-71
2022/04/24 06:01:40;;;;;;;0.85;0.60;;;;;;;;;;4997916;28;20022;-71
2022/04/24 06:04:26;;;;;;;0.70;0.60;;;;;;;;;;5004275;28;20044;-72
2022/04/24 06:07:12;;;;;;;0.70;0.70;;;;;;;;;;5024993;28;20509;-70
2022/04/24 06:09:57;;;;;;;1.48;0.80;;;;;;;;;;5006074;28;20034;-71
2022/04/24 06:12:43;;;;;;;2.17;0.70;;;;;;;;;;5010834;28;20044;-70
2022/04/24 06:15:28;;;;;;;0.95;0.60;;;;;;;;;;5028915;28;20034;-78
2022/04/24 06:18:14;;;;;;;0.70;0.60;;;;;;;;;;5005336;28;20453;-77
2022/04/24 06:20:59;;;;;;;1.10;0.60;;;;;;;;;;5010748;28;20048;-78
2022/04/24 06:23:44;;;;;;;1.40;0.60;;;;;;;;;;5010848;28;20116;-80
2022/04/24 06:26:31;;;;;;;0.77;0.63;;;;;;;;;;4996363;28;20108;-78
2022/04/24 06:29:16;;;;;;;0.63;0.63;;;;;;;;;;5011801;28;20439;-72
2022/04/24 06:32:04;;;;;;;0.93;0.50;;;;;;;;;;5001808;28;20026;-69
2022/04/24 06:34:49;;;;;;;0.95;0.70;;;;;;;;;;5011279;28;20176;-70
2022/04/24 06:37:38;;;;;;;0.88;0.70;;;;;;;;;;5002635;28;20112;-70
2022/04/24 06:40:24;;;;;;;0.50;0.50;;;;;;;;;;5003152;28;20029;-70
2022/04/24 06:43:09;;;;;;;4.15;0.80;;;;;;;;;;5015347;28;20144;-70
2022/04/24 06:45:55;;;;;;;0.40;0.40;;;;;;;;;;4988198;28;20036;-69
2022/04/24 06:48:40;;;;;;;0.60;0.60;;;;;;;;;;5001270;28;20036;-71
2022/04/24 06:51:25;;;;;;;0.50;0.50;;;;;;;;;;5015168;28;20040;-76
2022/04/24 06:54:10;;;;;;;0.77;0.55;;;;;;;;;;5011398;28;20531;-78
2022/04/24 06:57:01;;;;;;;0.85;0.60;;;;;;;;;;4991905;28;20029;-75
2022/04/24 06:59:46;;;;;;;0.90;0.60;;;;;;;;;;5003144;28;20378;-76
2022/04/24 07:02:32;;;;;;;1.73;0.80;;;;;;;;;;5000674;28;20048;-76
2022/04/24 07:05:19;;;;;;;0.85;0.50;;;;;;;;;;4993591;28;20048;-72
2022/04/24 07:08:04;;;;;;;0.50;0.50;;;;;;;;;;5008892;28;20439;-71
2022/04/24 07:10:50;;;;;;;0.60;0.60;;;;;;;;;;5008491;28;20034;-76
2022/04/24 07:13:36;;;;;;;0.68;0.68;;;;;;;;;;5000201;28;20024;-77
2022/04/24 07:16:21;;;;;;;1.60;0.68;;;;;;;;;;4999891;28;20128;-77
2022/04/24 07:19:06;;;;;;;0.50;0.50;;;;;;;;;;5001158;28;20511;-77
2022/04/24 07:21:52;;;;;;;0.57;0.57;;;;;;;;;;5027925;28;20017;-77
2022/04/24 07:24:37;;;;;;;1.95;0.80;;;;;;;;;;5026807;28;20473;-78
2022/04/24 07:27:22;;;;;;;0.90;0.60;;;;;;;;;;5018629;28;20026;-72
2022/04/24 07:30:13;;;;;;;0.70;0.70;;;;;;;;;;5013782;28;20504;-72
2022/04/24 07:33:00;;;;;;;1.40;0.70;;;;;;;;;;5007581;28;20064;-73
2022/04/24 07:35:45;;;;;;;0.77;0.60;;;;;;;;;;5008913;28;20112;-72
2022/04/24 07:38:30;;;;;;;0.95;0.85;;;;;;;;;;5027544;28;20033;-75
2022/04/24 07:41:16;;;;;;;2.17;0.70;;;;;;;;;;5004034;28;20080;-73
2022/04/24 07:44:02;;;;;;;1.98;0.70;;;;;;;;;;5017644;28;20022;-79
2022/04/24 07:46:47;;;;;;;0.95;0.60;;;;;;;;;;5014007;28;20530;-71
2022/04/24 07:49:32;;;;;;;3.70;1.23;;;;;;;;;;5017769;28;20134;-71
2022/04/24 07:52:19;;;;;;;2.03;0.70;;;;;;;;;;5017952;28;20511;-72
2022/04/24 07:55:04;;;;;;;1.25;0.80;;;;;;;;;;5011840;28;20036;-70
2022/04/24 07:57:52;;;;;;;2.17;1.15;;;;;;;;;;5015177;28;20025;-71
2022/04/24 08:00:38;;;;;;;0.80;0.52;;;;;;;;;;5018412;28;20081;-70
2022/04/24 08:03:23;;;;;;;2.70;0.60;;;;;;;;;;5030742;28;20532;-75
2022/04/24 08:06:08;;;;;;;1.35;0.77;;;;;;;;;;5015756;28;20324;-74
2022/04/24 08:08:54;;;;;;;1.33;0.70;;;;;;;;;;5015243;28;20535;-76
2022/04/24 08:11:39;;;;;;;2.45;0.70;;;;;;;;;;5004410;28;20440;-76
2022/04/24 08:14:24;;;;;;;0.52;0.52;;;;;;;;;;5009779;28;20029;-76
2022/04/24 08:17:10;;;;;;;4.30;1.90;;;;;;;;;;5000138;28;20022;-76
2022/04/24 08:19:55;;;;;;;1.88;1.10;;;;;;;;;;5009072;28;20029;-70
2022/04/24 08:25:20;;;;;;;2.08;0.70;;;;;;;;;;5957595;22;20037;-68
2022/04/24 08:28:06;;;;;;;1.33;0.88;;;;;;;;;;5007127;23;20046;-74
2022/04/24 08:30:52;;;;;;;2.30;0.90;;;;;;;;;;4997564;28;20049;-75
2022/04/24 08:33:37;;;;;;;0.75;0.73;;;;;;;;;;4990412;28;20066;-76
2022/04/24 08:36:26;;;;;;;1.40;0.85;;;;;;;;;;5005851;28;20480;-76
2022/04/24 08:39:11;;;;;;;1.10;0.77;;;;;;;;;;4991808;28;20049;-74
2022/04/24 08:41:57;;;;;;;1.45;0.80;;;;;;;;;;5002720;28;20026;-64
2022/04/24 08:44:42;;;;;;;1.13;0.75;;;;;;;;;;4972714;28;20049;-72
2022/04/24 08:47:28;;;;;;;0.85;0.85;;;;;;;;;;4995285;28;20041;-73
2022/04/24 08:50:13;;;;;;;1.25;0.85;;;;;;;;;;4988511;28;20113;-71
2022/04/24 08:52:59;;;;;;;1.40;0.80;;;;;;;;;;4989311;28;20026;-72
2022/04/24 08:55:45;;;;;;;1.10;0.80;;;;;;;;;;5004701;28;20033;-71
2022/04/24 08:58:31;;;;;;;1.10;0.80;;;;;;;;;;5002789;28;20034;-72
2022/04/24 09:01:16;;;;;;;1.05;0.80;;;;;;;;;;4983130;28;20744;-63
2022/04/24 09:04:02;;;;;;;4.60;1.10;;;;;;;;;;4988996;28;20038;-73
2022/04/24 09:06:57;;;;;;;1.63;0.85;;;;;;;;;;4988043;28;20034;-74
2022/04/24 09:09:43;;;;;;;2.03;0.88;;;;;;;;;;4987371;28;20046;-72
2022/04/24 09:12:29;;;;;;;4.05;1.00;;;;;;;;;;4990412;28;20481;-72
2022/04/24 09:15:15;;;;;;;0.90;0.82;;;;;;;;;;4989013;28;20093;-71
2022/04/24 09:18:01;;;;;;;1.90;1.08;;;;;;;;;;4987489;28;20042;-74
2022/04/24 09:20:53;;;;;;;0.95;0.90;;;;;;;;;;4984148;28;20061;-77
2022/04/24 09:23:39;;;;;;;1.60;0.90;;;;;;;;;;4974564;28;20038;-73
2022/04/24 09:26:24;;;;;;;1.38;1.00;;;;;;;;;;4987429;28;20033;-74
2022/04/24 09:29:12;;;;;;;1.05;0.88;;;;;;;;;;4970138;28;20381;-72
2022/04/24 09:31:58;;;;;;;1.05;0.77;;;;;;;;;;4974327;28;20073;-75
2022/04/24 09:34:43;;;;;;;1.13;0.88;;;;;;;;;;4998520;28;20037;-75
2022/04/24 09:37:37;;;;;;;1.55;0.90;;;;;;;;;;4974256;28;20435;-68
2022/04/24 09:40:23;;;;;;;2.13;1.00;;;;;;;;;;4971173;28;20038;-70
2022/04/24 09:43:09;;;;;;;1.83;1.00;;;;;;;;;;4968949;28;20043;-69
2022/04/24 09:45:55;;;;;;;1.23;1.02;;;;;;;;;;4955514;28;20433;-70
2022/04/24 09:48:40;;;;;;;1.33;1.13;;;;;;;;;;4973455;28;20433;-70
2022/04/24 09:51:26;;;;;;;2.58;1.17;;;;;;;;;;4964015;28;20472;-69
2022/04/24 09:54:11;;;;;;;1.27;0.80;;;;;;;;;;4966187;28;20452;-65
2022/04/24 09:56:58;;;;;;;2.70;0.98;;;;;;;;;;4980603;28;20043;-63
2022/04/24 09:59:44;;;;;;;1.70;1.10;;;;;;;;;;4982558;28;20402;-63
2022/04/24 10:02:30;;;;;;;2.28;1.23;;;;;;;;;;4979968;28;20465;-62
2022/04/24 10:05:15;;;;;;;2.90;1.30;;;;;;;;;;4971534;28;20481;-64
2022/04/24 10:08:04;;;;;;;2.08;1.38;;;;;;;;;;4956457;28;20039;-64
2022/04/24 10:10:50;;;;;;;1.63;1.10;;;;;;;;;;4969811;28;20042;-62
2022/04/24 10:13:38;;;;;;;2.83;1.67;;;;;;;;;;4971600;28;20246;-61
2022/04/24 10:16:38;;;;;;;1.50;1.23;;;;;;;;;;4950949;28;20038;-61
2022/04/24 10:19:27;;;;;;;4.72;1.27;;;;;;;;;;4980279;28;20066;-63
2022/04/24 10:22:38;;;;;;;1.92;1.48;;;;;;;;;;4979817;28;20554;-61
2022/04/24 10:25:37;;;;;;;4.53;1.40;;;;;;;;;;4962214;28;20058;-63
2022/04/24 10:28:22;;;;;;;2.90;1.17;;;;;;;;;;4968856;28;20485;-66
2022/04/24 10:31:09;;;;;;;2.47;1.25;;;;;;;;;;4975057;28;20402;-69
2022/04/24 10:33:55;;;;;;;2.22;1.00;;;;;;;;;;4968327;28;20405;-68
2022/04/24 10:36:54;;;;;;;3.72;1.33;;;;;;;;;;4964691;28;20058;-68
2022/04/24 10:39:40;;;;;;;1.60;1.20;;;;;;;;;;4965982;28;20035;-66
2022/04/24 10:42:30;;;;;;;2.25;1.27;;;;;;;;;;4968852;28;20045;-67
2022/04/24 10:45:18;;;;;;;2.20;1.17;;;;;;;;;;4966190;28;20042;-67
2022/04/24 10:48:13;;;;;;;1.48;1.20;;;;;;;;;;4967114;28;20034;-68
2022/04/24 10:50:58;;;;;;;2.03;1.38;;;;;;;;;;4971288;28;20485;-65
2022/04/24 10:53:47;;;;;;;4.25;1.27;;;;;;;;;;4993615;28;20566;-74
2022/04/24 10:56:33;;;;;;;1.80;1.20;;;;;;;;;;4966230;28;20077;-75
2022/04/24 10:59:19;;;;;;;1.75;1.00;;;;;;;;;;4975577;28;20466;-73
2022/04/24 11:02:06;;;;;;;1.92;1.20;;;;;;;;;;4968225;28;20428;-76
2022/04/24 11:05:06;;;;;;;1.38;1.08;;;;;;;;;;4979644;28;20066;-75
2022/04/24 11:08:04;;;;;;;2.38;1.42;;;;;;;;;;4961033;28;20152;-74
2022/04/24 11:10:49;;;;;;;3.25;1.20;;;;;;;;;;4964122;28;20030;-67
2022/04/24 11:13:36;;;;;;;1.20;1.00;;;;;;;;;;4953142;28;20046;-71
2022/04/24 11:16:22;;;;;;;2.88;1.20;;;;;;;;;;4956152;28;20597;-70
2022/04/24 11:19:07;;;;;;;3.83;1.88;;;;;;;;;;4966036;28;20023;-68
2022/04/24 11:21:56;;;;;;;2.40;1.15;;;;;;;;;;4962101;28;20106;-69
2022/04/24 11:24:41;;;;;;;1.95;1.23;;;;;;;;;;4974951;28;20035;-69
2022/04/24 11:27:26;;;;;;;0.80;0.80;;;;;;;;;;4952106;28;20410;-70
2022/04/24 11:30:19;;;;;;;2.55;1.00;;;;;;;;;;4967218;28;20030;-64
2022/04/24 11:33:05;;;;;;;3.80;1.00;;;;;;;;;;4999319;28;20050;-65
2022/04/24 11:35:53;;;;;;;1.38;0.93;;;;;;;;;;4981048;28;20552;-67
2022/04/24 11:38:39;;;;;;;2.42;1.27;;;;;;;;;;4967463;28;20078;-65
2022/04/24 11:41:27;;;;;;;2.97;1.15;;;;;;;;;;4964460;28;20027;-68
2022/04/24 11:50:22;;;;;;;1.55;1.00;;;;;;;;;;4964832;28;20517;-70
2022/04/24 11:53:07;;;;;;;2.40;1.13;;;;;;;;;;4964876;28;20433;-69
2022/04/24 11:56:01;;;;;;;4.13;1.08;;;;;;;;;;4949969;28;20105;-68
2022/04/24 11:58:48;;;;;;;3.10;1.05;;;;;;;;;;4967704;28;20054;-68
2022/04/24 12:01:33;;;;;;;2.38;1.20;;;;;;;;;;4964719;28;20038;-67
2022/04/24 12:04:19;;;;;;;1.30;0.80;;;;;;;;;;4963110;28;20046;-75
2022/04/24 12:07:05;;;;;;;1.35;0.98;;;;;;;;;;4966822;28;20045;-67
2022/04/24 12:09:58;;;;;;;1.90;1.00;;;;;;;;;;4961488;28;20039;-67
2022/04/24 12:12:53;;;;;;;1.58;0.95;;;;;;;;;;4970250;28;20750;-67
2022/04/24 12:15:48;;;;;;;1.80;0.90;;;;;;;;;;4971127;28;20038;-67
2022/04/24 12:18:34;;;;;;;1.88;1.17;;;;;;;;;;4964614;28;20030;-67
2022/04/24 12:21:19;;;;;;;1.30;1.20;;;;;;;;;;4966124;28;20591;-66
2022/04/24 12:24:05;;;;;;;2.35;1.00;;;;;;;;;;4972573;28;20034;-67
2022/04/24 12:26:51;;;;;;;1.30;1.20;;;;;;;;;;4968569;28;20559;-75
2022/04/24 12:29:43;;;;;;;1.33;1.10;;;;;;;;;;4965749;28;20086;-76
2022/04/24 12:32:29;;;;;;;3.60;1.13;;;;;;;;;;4989389;28;20096;-74
2022/04/24 12:35:27;;;;;;;1.77;1.02;;;;;;;;;;4956762;28;20041;-72
2022/04/24 12:38:13;;;;;;;1.55;1.17;;;;;;;;;;4970059;28;20038;-74
2022/04/24 12:40:59;;;;;;;3.33;1.52;;;;;;;;;;4967546;28;20456;-67
2022/04/24 12:43:45;;;;;;;1.30;0.75;;;;;;;;;;4974782;28;20074;-70
2022/04/24 12:46:30;;;;;;;2.70;1.10;;;;;;;;;;4989498;28;20485;-67
2022/04/24 12:49:29;;;;;;;2.38;1.30;;;;;;;;;;4968613;28;20050;-67
2022/04/24 12:52:14;;;;;;;2.40;1.20;;;;;;;;;;4968285;28;20043;-66
2022/04/24 12:55:00;;;;;;;0.82;0.80;;;;;;;;;;4970212;28;20038;-67
2022/04/24 12:57:46;;;;;;;3.97;1.00;;;;;;;;;;4969870;28;20069;-69
2022/04/24 13:00:32;;;;;;;1.02;0.93;;;;;;;;;;4968636;28;20039;-71
2022/04/24 13:03:18;;;;;;;1.30;1.00;;;;;;;;;;4969332;28;20047;-67
2022/04/24 13:06:03;;;;;;;1.77;0.95;;;;;;;;;;4969204;28;20030;-64
2022/04/24 13:08:48;;;;;;;0.85;0.85;;;;;;;;;;4966274;28;20054;-66
2022/04/24 13:11:33;;;;;;;0.80;0.80;;;;;;;;;;4971942;28;20678;-68
2022/04/24 13:14:19;;;;;;;2.65;0.93;;;;;;;;;;4962649;28;20477;-67
2022/04/24 13:20:08;;;;;;;2.35;1.00;;;;;;;;;;4967541;28;20034;-65
2022/04/24 13:22:54;;;;;;;2.88;1.42;;;;;;;;;;4968619;28;20030;-68
2022/04/24 13:25:40;;;;;;;1.15;0.95;;;;;;;;;;4987341;28;20038;-66
2022/04/24 13:28:25;;;;;;;1.45;0.73;;;;;;;;;;4968076;28;20047;-65
2022/04/24 13:31:10;;;;;;;3.50;1.30;;;;;;;;;;4968596;28;20442;-67
2022/04/24 13:33:55;;;;;;;1.02;0.70;;;;;;;;;;4968733;28;20052;-65
2022/04/24 13:36:41;;;;;;;1.67;1.02;;;;;;;;;;4968581;28;20046;-66
2022/04/24 13:39:26;;;;;;;3.08;0.70;;;;;;;;;;4981252;28;20027;-65
2022/04/24 13:42:13;;;;;;;1.52;0.80;;;;;;;;;;4971226;28;20112;-66
2022/04/24 13:44:58;;;;;;;0.93;0.80;;;;;;;;;;4955862;28;20034;-66
2022/04/24 13:47:45;;;;;;;0.98;0.73;;;;;;;;;;4965176;28;20393;-64
2022/04/24 13:50:31;;;;;;;1.05;0.70;;;;;;;;;;4967789;28;20054;-65
2022/04/24 13:53:16;;;;;;;2.22;0.80;;;;;;;;;;4969474;28;20181;-64
2022/04/24 13:56:02;;;;;;;2.13;0.70;;;;;;;;;;4979696;28;20125;-73
2022/04/24 13:58:48;;;;;;;6.60;1.63;;;;;;;;;;4967500;28;20049;-74
2022/04/24 14:01:34;;;;;;;2.92;0.93;;;;;;;;;;4965558;28;20061;-74
2022/04/24 14:04:20;;;;;;;1.17;1.05;;;;;;;;;;4981036;28;20041;-75
2022/04/24 14:07:06;;;;;;;3.53;0.73;;;;;;;;;;4978892;28;20347;-74
2022/04/24 14:09:51;;;;;;;0.63;0.60;;;;;;;;;;4965450;28;20034;-76
2022/04/24 14:12:37;;;;;;;2.17;1.00;;;;;;;;;;4980571;28;20367;-65
2022/04/24 14:15:28;;;;;;;3.30;0.90;;;;;;;;;;4978799;28;20027;-67
2022/04/24 14:18:13;;;;;;;0.70;0.70;;;;;;;;;;4968357;28;20114;-66
2022/04/24 14:20:59;;;;;;;2.03;0.90;;;;;;;;;;4969707;28;20219;-62
2022/04/24 14:23:44;;;;;;;1.77;0.80;;;;;;;;;;4965511;28;20518;-62
2022/04/24 14:26:29;;;;;;;1.15;0.75;;;;;;;;;;4970908;28;20429;-63
2022/04/24 14:29:15;;;;;;;1.08;0.65;;;;;;;;;;4981992;28;20030;-65
2022/04/24 14:32:00;;;;;;;0.70;0.70;;;;;;;;;;4982205;28;20493;-63
2022/04/24 14:34:45;;;;;;;0.77;0.77;;;;;;;;;;4978846;28;20027;-62
2022/04/24 14:37:30;;;;;;;1.15;0.82;;;;;;;;;;4964141;28;20039;-69
2022/04/24 14:40:16;;;;;;;1.00;0.90;;;;;;;;;;4970029;28;20038;-67
2022/04/24 14:43:04;;;;;;;2.15;0.93;;;;;;;;;;4979496;28;20065;-68
2022/04/24 14:58:06;;;;;;;1.15;0.80;;;;;;;;;;4969424;28;20034;-73
2022/04/24 15:00:51;;;;;;;1.80;0.80;;;;;;;;;;4980029;28;20042;-75
2022/04/24 15:03:37;;;;;;;2.20;1.27;;;;;;;;;;4964336;28;20505;-74
2022/04/24 15:06:22;;;;;;;2.05;1.10;;;;;;;;;;4954681;28;20556;-71
2022/04/24 15:09:07;;;;;;;2.80;1.13;;;;;;;;;;4966730;28;20505;-76
2022/04/24 15:11:53;;;;;;;1.35;0.90;;;;;;;;;;4953824;28;20030;-75
2022/04/24 15:14:38;;;;;;;0.98;0.80;;;;;;;;;;4964680;28;20117;-74
2022/04/24 15:17:23;;;;;;;1.50;0.88;;;;;;;;;;4953709;28;20039;-72
2022/04/24 15:20:09;;;;;;;1.80;1.00;;;;;;;;;;4952740;28;20069;-75
2022/04/24 15:22:55;;;;;;;3.08;1.00;;;;;;;;;;4986670;28;20034;-73
2022/04/24 15:25:41;;;;;;;2.70;1.00;;;;;;;;;;4965627;28;20042;-71
2022/04/24 15:28:26;;;;;;;1.23;1.10;;;;;;;;;;4959402;28;20042;-65
2022/04/24 15:31:11;;;;;;;1.75;1.17;;;;;;;;;;4966653;28;20057;-66
2022/04/24 15:33:58;;;;;;;0.85;0.77;;;;;;;;;;4981917;28;20050;-65
2022/04/24 15:36:43;;;;;;;1.77;1.10;;;;;;;;;;4960081;28;20045;-63
2022/04/24 15:39:28;;;;;;;2.30;0.90;;;;;;;;;;4966414;28;20035;-63
2022/04/24 15:42:14;;;;;;;2.38;1.00;;;;;;;;;;4966370;28;20061;-65
2022/04/24 15:45:13;;;;;;;3.22;1.13;;;;;;;;;;4976490;28;20037;-64
2022/04/24 15:47:58;;;;;;;4.57;1.60;;;;;;;;;;4965174;28;20049;-68
2022/04/24 15:50:43;;;;;;;1.40;1.08;;;;;;;;;;4966446;28;20550;-67
2022/04/24 15:53:29;;;;;;;1.38;1.23;;;;;;;;;;4966857;28;20089;-66
2022/04/24 15:56:14;;;;;;;1.35;1.00;;;;;;;;;;4977663;28;20045;-66
2022/04/24 15:58:59;;;;;;;1.80;0.82;;;;;;;;;;4966661;28;20053;-64
2022/04/24 16:01:45;;;;;;;2.80;1.02;;;;;;;;;;4965152;28;20472;-66
2022/04/24 16:04:30;;;;;;;2.40;1.23;;;;;;;;;;4969705;28;20151;-76
2022/04/24 16:07:15;;;;;;;2.72;1.10;;;;;;;;;;4969869;28;20477;-65
2022/04/24 16:10:01;;;;;;;3.20;2.45;;;;;;;;;;4956122;28;20042;-63
2022/04/24 16:12:46;;;;;;;3.95;1.80;;;;;;;;;;4970927;28;20216;-62
2022/04/24 16:15:31;;;;;;;4.43;1.40;;;;;;;;;;4969043;28;20057;-63
2022/04/24 16:18:17;;;;;;;3.20;1.30;;;;;;;;;;4971414;28;20117;-63
2022/04/24 16:21:02;;;;;;;1.83;1.50;;;;;;;;;;4977012;28;20158;-71
2022/04/24 16:23:47;;;;;;;1.60;1.50;;;;;;;;;;4974300;28;20034;-64
2022/04/24 16:26:32;;;;;;;4.13;1.70;;;;;;;;;;4969916;28;20753;-68
2022/04/24 16:32:23;;;;;;;3.70;2.38;;;;;;;;;;4952958;28;20493;-64
2022/04/24 16:35:09;;;;;;;2.72;2.17;;;;;;;;;;4951576;28;20022;-64
2022/04/24 16:37:55;;;;;;;4.70;3.05;;;;;;;;;;4971597;28;20077;-66
2022/04/24 16:40:40;;;;;;;7.35;4.15;;;;;;;;;;4969244;28;20100;-64
2022/04/24 16:43:26;;;;;;;7.05;3.70;;;;;;;;;;4969194;28;20042;-66
2022/04/24 16:46:12;;;;;;;7.15;4.30;;;;;;;;;;4964955;28;20031;-66
2022/04/24 16:48:57;;;;;;;6.32;4.65;;;;;;;;;;4967557;28;20513;-67
2022/04/24 17:00:55;;;;;;;8.75;5.25;;;;;;;;;;4980593;28;20036;-70
2022/04/24 17:03:41;;;;;;;7.20;5.20;;;;;;;;;;4971269;28;20046;-70
2022/04/24 17:06:26;;;;;;;11.45;5.80;;;;;;;;;;4967876;28;20030;-68